QTR75A OEJN-OTHH
Flight info
| Callsign | QTR75A |
|---|---|
| Flight time | 1h 42m |
| Altitude | 33000 |
| Route | EGREP T532 KODIS Y214 RAPMA DCT LADBO/N0514F290 T142 LAEEB |
| Aircraft | B748/H-SDE3FGHIM1M2RWXY/LB1 |
Departure
| Time | 2026-05-05 22:28 |
|---|---|
| Airport | King Abdulaziz International Airport (OEJN) |
Arrival
| Time | 2026-05-06 00:11 |
|---|---|
| Airport | Hamad International Airport (OTHH) |
| Time | Latitude | Longitude | Altitude | Speed | Heading |
|---|---|---|---|---|---|
| 2026-05-05 21:45 | 21.67239 | 39.15655 | 62 ft | 0 kts | 250° |
| 2026-05-05 22:09 | 21.67242 | 39.15663 | 62 ft | 2 kts | 250° |
| 2026-05-05 22:09 | 21.67247 | 39.15679 | 62 ft | 2 kts | 250° |
| 2026-05-05 22:10 | 21.67252 | 39.15695 | 62 ft | 2 kts | 253° |
| 2026-05-05 22:10 | 21.67255 | 39.15712 | 62 ft | 2 kts | 269° |
| 2026-05-05 22:10 | 21.67253 | 39.15729 | 62 ft | 2 kts | 289° |
| 2026-05-05 22:10 | 21.67246 | 39.15744 | 62 ft | 2 kts | 309° |
| 2026-05-05 22:11 | 21.67235 | 39.15755 | 62 ft | 1 kts | 327° |
| 2026-05-05 22:11 | 21.67229 | 39.15758 | 62 ft | 0 kts | 330° |
| 2026-05-05 22:18 | 21.67238 | 39.15753 | 62 ft | 6 kts | 331° |
| 2026-05-05 22:18 | 21.67300 | 39.15773 | 62 ft | 11 kts | 39° |
| 2026-05-05 22:18 | 21.67336 | 39.15823 | 63 ft | 10 kts | 93° |
| 2026-05-05 22:18 | 21.67285 | 39.15875 | 61 ft | 15 kts | 181° |
| 2026-05-05 22:19 | 21.67158 | 39.15849 | 62 ft | 17 kts | 185° |
| 2026-05-05 22:19 | 21.67015 | 39.15917 | 62 ft | 28 kts | 159° |
| 2026-05-05 22:19 | 21.66798 | 39.16004 | 62 ft | 36 kts | 159° |
| 2026-05-05 22:19 | 21.66571 | 39.16096 | 62 ft | 34 kts | 159° |
| 2026-05-05 22:20 | 21.66368 | 39.16177 | 62 ft | 27 kts | 159° |
| 2026-05-05 22:20 | 21.66214 | 39.16237 | 62 ft | 19 kts | 160° |
| 2026-05-05 22:20 | 21.66094 | 39.16294 | 62 ft | 19 kts | 126° |
| 2026-05-05 22:20 | 21.66103 | 39.16418 | 62 ft | 12 kts | 68° |
| 2026-05-05 22:21 | 21.66150 | 39.16464 | 62 ft | 7 kts | 3° |
| 2026-05-05 22:21 | 21.66189 | 39.16457 | 62 ft | 3 kts | 338° |
| 2026-05-05 22:21 | 21.66190 | 39.16457 | 62 ft | 0 kts | 338° |
| 2026-05-05 22:27 | 21.66225 | 39.16441 | 62 ft | 26 kts | 337° |
| 2026-05-05 22:27 | 21.66619 | 39.16280 | 63 ft | 96 kts | 340° |
| 2026-05-05 22:28 | 21.67456 | 39.15957 | 63 ft | 162 kts | 341° |
| 2026-05-05 22:28 | 21.68722 | 39.15484 | 118 ft | 208 kts | 341° |
| 2026-05-05 22:28 | 21.70136 | 39.14918 | 456 ft | 223 kts | 340° |
| 2026-05-05 22:28 | 21.71600 | 39.14304 | 1046 ft | 232 kts | 340° |
| 2026-05-05 22:29 | 21.73131 | 39.13672 | 1707 ft | 235 kts | 338° |
| 2026-05-05 22:29 | 21.74629 | 39.13033 | 2455 ft | 230 kts | 340° |
| 2026-05-05 22:29 | 21.76136 | 39.12459 | 2921 ft | 238 kts | 341° |
| 2026-05-05 22:29 | 21.77770 | 39.11835 | 3192 ft | 258 kts | 341° |
| 2026-05-05 22:30 | 21.79531 | 39.11154 | 3531 ft | 276 kts | 340° |
| 2026-05-05 22:30 | 21.81369 | 39.10433 | 4228 ft | 280 kts | 340° |
| 2026-05-05 22:30 | 21.83162 | 39.09699 | 5252 ft | 271 kts | 339° |
| 2026-05-05 22:30 | 21.84929 | 39.09034 | 5900 ft | 281 kts | 342° |
| 2026-05-05 22:31 | 21.86909 | 39.08562 | 6238 ft | 300 kts | 351° |
| 2026-05-05 22:31 | 21.89059 | 39.08520 | 6726 ft | 313 kts | 6° |
| 2026-05-05 22:31 | 21.91112 | 39.09240 | 7447 ft | 317 kts | 27° |
| 2026-05-05 22:31 | 21.92851 | 39.10657 | 8533 ft | 305 kts | 41° |
| 2026-05-05 22:32 | 21.94111 | 39.12483 | 9280 ft | 314 kts | 63° |
| 2026-05-05 22:32 | 21.94616 | 39.14968 | 8691 ft | 362 kts | 81° |
| 2026-05-05 22:32 | 21.94977 | 39.17683 | 9396 ft | 367 kts | 82° |
| 2026-05-05 22:32 | 21.95312 | 39.20386 | 10390 ft | 364 kts | 83° |
| 2026-05-05 22:33 | 21.95649 | 39.23085 | 11300 ft | 365 kts | 78° |
| 2026-05-05 22:33 | 21.96564 | 39.25681 | 11681 ft | 379 kts | 60° |
| 2026-05-05 22:33 | 21.98039 | 39.28084 | 12099 ft | 388 kts | 54° |
| 2026-05-05 22:33 | 21.99571 | 39.30421 | 12799 ft | 375 kts | 53° |
| 2026-05-05 22:34 | 22.01103 | 39.32603 | 13678 ft | 340 kts | 51° |
| 2026-05-05 22:34 | 22.02826 | 39.34353 | 14321 ft | 344 kts | 38° |
| 2026-05-05 22:34 | 22.04726 | 39.35969 | 15046 ft | 342 kts | 41° |
| 2026-05-05 22:34 | 22.06451 | 39.37798 | 15321 ft | 356 kts | 48° |
| 2026-05-05 22:35 | 22.08075 | 39.39830 | 15446 ft | 374 kts | 50° |
| 2026-05-05 22:35 | 22.09832 | 39.42071 | 15580 ft | 394 kts | 49° |
| 2026-05-05 22:35 | 22.11688 | 39.44333 | 15740 ft | 411 kts | 48° |
| 2026-05-05 22:35 | 22.13653 | 39.46630 | 16189 ft | 421 kts | 47° |
| 2026-05-05 22:36 | 22.15718 | 39.48974 | 16647 ft | 430 kts | 46° |
| 2026-05-05 22:36 | 22.17808 | 39.51322 | 17099 ft | 439 kts | 45° |
| 2026-05-05 22:36 | 22.19952 | 39.53725 | 17553 ft | 448 kts | 45° |
| 2026-05-05 22:36 | 22.22132 | 39.56167 | 18005 ft | 456 kts | 45° |
| 2026-05-05 22:37 | 22.24290 | 39.58580 | 18446 ft | 463 kts | 44° |
| 2026-05-05 22:37 | 22.26656 | 39.61214 | 18916 ft | 471 kts | 45° |
| 2026-05-05 22:37 | 22.28951 | 39.63779 | 19366 ft | 478 kts | 45° |
| 2026-05-05 22:37 | 22.31261 | 39.66369 | 19815 ft | 485 kts | 45° |
| 2026-05-05 22:38 | 22.33612 | 39.69008 | 20268 ft | 491 kts | 44° |
| 2026-05-05 22:38 | 22.36005 | 39.71697 | 20723 ft | 497 kts | 44° |
| 2026-05-05 22:38 | 22.38448 | 39.74443 | 21177 ft | 502 kts | 45° |
| 2026-05-05 22:38 | 22.40851 | 39.77145 | 21623 ft | 507 kts | 45° |
| 2026-05-05 22:39 | 22.43338 | 39.79942 | 22078 ft | 512 kts | 45° |
| 2026-05-05 22:39 | 22.45790 | 39.82694 | 22524 ft | 517 kts | 44° |
| 2026-05-05 22:39 | 22.48421 | 39.85431 | 22980 ft | 520 kts | 41° |
| 2026-05-05 22:39 | 22.50731 | 39.87659 | 23364 ft | 523 kts | 40° |
| 2026-05-05 22:40 | 22.53405 | 39.90161 | 23802 ft | 526 kts | 39° |
| 2026-05-05 22:40 | 22.56210 | 39.92805 | 24259 ft | 529 kts | 39° |
| 2026-05-05 22:40 | 22.58956 | 39.95412 | 24706 ft | 532 kts | 39° |
| 2026-05-05 22:40 | 22.61734 | 39.98060 | 25153 ft | 535 kts | 40° |
| 2026-05-05 22:41 | 22.64530 | 40.00731 | 25605 ft | 537 kts | 40° |
| 2026-05-05 22:41 | 22.67334 | 40.03415 | 26055 ft | 539 kts | 40° |
| 2026-05-05 22:41 | 22.70151 | 40.06115 | 26507 ft | 541 kts | 40° |
| 2026-05-05 22:41 | 22.72980 | 40.08823 | 26958 ft | 543 kts | 40° |
| 2026-05-05 22:42 | 22.75814 | 40.11522 | 27409 ft | 543 kts | 40° |
| 2026-05-05 22:42 | 22.78650 | 40.14233 | 27860 ft | 542 kts | 40° |
| 2026-05-05 22:42 | 22.81477 | 40.16940 | 28310 ft | 542 kts | 40° |
| 2026-05-05 22:42 | 22.84337 | 40.19684 | 28766 ft | 543 kts | 40° |
| 2026-05-05 22:43 | 22.87133 | 40.22368 | 29210 ft | 543 kts | 40° |
| 2026-05-05 22:43 | 22.89964 | 40.25087 | 29661 ft | 543 kts | 40° |
| 2026-05-05 22:43 | 22.92782 | 40.27796 | 30109 ft | 542 kts | 40° |
| 2026-05-05 22:43 | 22.95603 | 40.30509 | 30560 ft | 541 kts | 40° |
| 2026-05-05 22:44 | 22.98421 | 40.33223 | 31009 ft | 539 kts | 39° |
| 2026-05-05 22:44 | 23.01167 | 40.35867 | 31447 ft | 537 kts | 39° |
| 2026-05-05 22:44 | 23.03996 | 40.38592 | 31903 ft | 535 kts | 39° |
| 2026-05-05 22:44 | 23.06637 | 40.41124 | 32330 ft | 532 kts | 39° |
| 2026-05-05 22:45 | 23.09388 | 40.43775 | 32777 ft | 529 kts | 39° |
| 2026-05-05 22:45 | 23.12156 | 40.46449 | 33231 ft | 525 kts | 39° |
| 2026-05-05 22:45 | 23.14880 | 40.49084 | 33681 ft | 520 kts | 39° |
| 2026-05-05 22:45 | 23.17558 | 40.51676 | 34126 ft | 515 kts | 39° |
| 2026-05-05 22:46 | 23.20227 | 40.54261 | 34574 ft | 510 kts | 39° |
| 2026-05-05 22:46 | 23.22775 | 40.56730 | 34839 ft | 509 kts | 39° |
| 2026-05-05 22:46 | 23.25153 | 40.59084 | 34888 ft | 514 kts | 44° |
| 2026-05-05 22:46 | 23.27356 | 40.62224 | 34927 ft | 519 kts | 59° |
| 2026-05-05 22:47 | 23.29095 | 40.65709 | 34929 ft | 525 kts | 65° |
| 2026-05-05 22:47 | 23.31951 | 40.73104 | 34922 ft | 537 kts | 71° |
| 2026-05-05 22:48 | 23.34532 | 40.80843 | 34917 ft | 549 kts | 71° |
| 2026-05-05 22:48 | 23.37226 | 40.88751 | 34950 ft | 559 kts | 71° |
| 2026-05-05 22:49 | 23.39978 | 40.96755 | 35011 ft | 567 kts | 71° |
| 2026-05-05 22:49 | 23.42808 | 41.04870 | 35004 ft | 575 kts | 70° |
| 2026-05-05 22:50 | 23.45127 | 41.11572 | 35002 ft | 581 kts | 71° |
| 2026-05-05 22:50 | 23.48010 | 41.19938 | 35000 ft | 582 kts | 71° |
| 2026-05-05 22:51 | 23.50760 | 41.27939 | 34997 ft | 581 kts | 71° |
| 2026-05-05 22:51 | 23.53605 | 41.36233 | 34998 ft | 585 kts | 71° |
| 2026-05-05 22:52 | 23.56462 | 41.44555 | 35001 ft | 587 kts | 70° |
| 2026-05-05 22:52 | 23.59342 | 41.52947 | 34996 ft | 587 kts | 71° |
| 2026-05-05 22:53 | 23.62175 | 41.61280 | 34938 ft | 586 kts | 71° |
| 2026-05-05 22:53 | 23.65001 | 41.69610 | 34902 ft | 586 kts | 71° |
| 2026-05-05 22:54 | 23.67825 | 41.77980 | 34897 ft | 586 kts | 72° |
| 2026-05-05 22:54 | 23.70460 | 41.86379 | 34898 ft | 585 kts | 72° |
| 2026-05-05 22:55 | 23.73097 | 41.94758 | 34897 ft | 586 kts | 72° |
| 2026-05-05 22:55 | 23.75778 | 42.03100 | 34899 ft | 586 kts | 71° |
| 2026-05-05 22:56 | 23.78675 | 42.11483 | 34900 ft | 587 kts | 71° |
| 2026-05-05 22:56 | 23.81514 | 42.19805 | 34899 ft | 587 kts | 71° |
| 2026-05-05 22:57 | 23.84355 | 42.28174 | 34899 ft | 586 kts | 71° |
| 2026-05-05 22:57 | 23.87199 | 42.36540 | 34898 ft | 586 kts | 70° |
| 2026-05-05 22:58 | 23.90036 | 42.44854 | 34897 ft | 586 kts | 71° |
| 2026-05-05 22:58 | 23.92882 | 42.53262 | 34898 ft | 586 kts | 71° |
| 2026-05-05 22:59 | 23.95719 | 42.61608 | 34900 ft | 586 kts | 71° |
| 2026-05-05 22:59 | 23.98519 | 42.69930 | 34897 ft | 586 kts | 71° |
| 2026-05-05 23:00 | 24.02727 | 42.82539 | 34895 ft | 586 kts | 73° |
| 2026-05-05 23:00 | 24.03574 | 42.86873 | 34890 ft | 582 kts | 88° |
| 2026-05-05 23:00 | 24.03552 | 42.91272 | 34904 ft | 577 kts | 99° |
| 2026-05-05 23:01 | 24.02035 | 42.99797 | 34898 ft | 567 kts | 111° |
| 2026-05-05 23:01 | 23.99673 | 43.07993 | 34901 ft | 562 kts | 113° |
| 2026-05-05 23:02 | 23.97358 | 43.16157 | 34899 ft | 564 kts | 112° |
| 2026-05-05 23:02 | 23.95105 | 43.24336 | 34893 ft | 564 kts | 111° |
| 2026-05-05 23:03 | 23.92876 | 43.32598 | 34899 ft | 565 kts | 111° |
| 2026-05-05 23:03 | 23.90633 | 43.40835 | 34891 ft | 565 kts | 111° |
| 2026-05-05 23:04 | 23.88422 | 43.48914 | 34883 ft | 564 kts | 112° |
| 2026-05-05 23:04 | 23.86172 | 43.57140 | 34880 ft | 565 kts | 111° |
| 2026-05-05 23:05 | 23.83914 | 43.65391 | 34856 ft | 572 kts | 107° |
| 2026-05-05 23:05 | 23.81596 | 43.73769 | 34874 ft | 578 kts | 111° |
| 2026-05-05 23:06 | 23.80447 | 43.77915 | 34875 ft | 565 kts | 112° |
| 2026-05-05 23:06 | 23.79309 | 43.82015 | 34867 ft | 562 kts | 112° |
| 2026-05-05 23:06 | 23.77348 | 43.90334 | 34859 ft | 570 kts | 102° |
| 2026-05-05 23:07 | 23.76505 | 43.98942 | 34860 ft | 577 kts | 93° |
| 2026-05-05 23:07 | 23.75949 | 44.07732 | 34859 ft | 583 kts | 94° |
| 2026-05-05 23:08 | 23.75305 | 44.16550 | 34862 ft | 580 kts | 92° |
| 2026-05-05 23:08 | 23.74643 | 44.25257 | 34868 ft | 574 kts | 91° |
| 2026-05-05 23:09 | 23.74012 | 44.33894 | 34879 ft | 569 kts | 93° |
| 2026-05-05 23:09 | 23.73360 | 44.42500 | 34883 ft | 567 kts | 94° |
| 2026-05-05 23:10 | 23.72698 | 44.51088 | 34886 ft | 569 kts | 94° |
| 2026-05-05 23:10 | 23.72051 | 44.59661 | 34878 ft | 565 kts | 94° |
| 2026-05-05 23:11 | 23.71379 | 44.68181 | 34893 ft | 562 kts | 95° |
| 2026-05-05 23:11 | 23.70700 | 44.76677 | 34894 ft | 562 kts | 95° |
| 2026-05-05 23:12 | 23.70019 | 44.85166 | 34879 ft | 561 kts | 96° |
| 2026-05-05 23:12 | 23.69353 | 44.93645 | 34889 ft | 559 kts | 97° |
| 2026-05-05 23:13 | 23.68666 | 45.02121 | 34855 ft | 565 kts | 99° |
| 2026-05-05 23:13 | 23.67991 | 45.10313 | 34835 ft | 571 kts | 99° |
| 2026-05-05 23:14 | 23.67276 | 45.18964 | 34837 ft | 572 kts | 99° |
| 2026-05-05 23:14 | 23.66563 | 45.27593 | 34828 ft | 571 kts | 98° |
| 2026-05-05 23:15 | 23.65872 | 45.36214 | 34828 ft | 570 kts | 99° |
| 2026-05-05 23:15 | 23.65149 | 45.44834 | 34829 ft | 571 kts | 99° |
| 2026-05-05 23:16 | 23.64420 | 45.53438 | 34814 ft | 569 kts | 99° |
| 2026-05-05 23:16 | 23.63690 | 45.62041 | 34819 ft | 569 kts | 99° |
| 2026-05-05 23:17 | 23.62956 | 45.70642 | 34820 ft | 570 kts | 99° |
| 2026-05-05 23:17 | 23.62213 | 45.79245 | 34811 ft | 569 kts | 99° |
| 2026-05-05 23:18 | 23.61467 | 45.87830 | 34812 ft | 569 kts | 99° |
| 2026-05-05 23:18 | 23.60717 | 45.96416 | 34807 ft | 569 kts | 99° |
| 2026-05-05 23:19 | 23.59986 | 46.04996 | 34803 ft | 568 kts | 98° |
| 2026-05-05 23:19 | 23.59250 | 46.13575 | 34803 ft | 569 kts | 99° |
| 2026-05-05 23:20 | 23.58514 | 46.22171 | 34800 ft | 569 kts | 98° |
| 2026-05-05 23:20 | 23.57760 | 46.30689 | 34797 ft | 569 kts | 99° |
| 2026-05-05 23:21 | 23.56989 | 46.39249 | 34799 ft | 570 kts | 99° |
| 2026-05-05 23:21 | 23.56209 | 46.47871 | 34791 ft | 568 kts | 99° |
| 2026-05-05 23:22 | 23.55429 | 46.56442 | 34796 ft | 569 kts | 98° |
| 2026-05-05 23:22 | 23.54635 | 46.64962 | 34790 ft | 565 kts | 99° |
| 2026-05-05 23:23 | 23.53876 | 46.73062 | 34790 ft | 566 kts | 99° |
| 2026-05-05 23:23 | 23.53072 | 46.81603 | 34788 ft | 566 kts | 99° |
| 2026-05-05 23:24 | 23.52399 | 46.88708 | 34792 ft | 567 kts | 99° |
| 2026-05-05 23:24 | 23.51618 | 46.97275 | 34801 ft | 566 kts | 99° |
| 2026-05-05 23:25 | 23.50822 | 47.05777 | 34800 ft | 567 kts | 99° |
| 2026-05-05 23:25 | 23.50010 | 47.14325 | 34805 ft | 567 kts | 99° |
| 2026-05-05 23:26 | 23.49214 | 47.22851 | 34808 ft | 566 kts | 99° |
| 2026-05-05 23:26 | 23.48384 | 47.31453 | 34815 ft | 568 kts | 99° |
| 2026-05-05 23:27 | 23.47547 | 47.40000 | 34825 ft | 566 kts | 99° |
| 2026-05-05 23:27 | 23.46714 | 47.48492 | 34830 ft | 567 kts | 99° |
| 2026-05-05 23:28 | 23.45880 | 47.57025 | 34833 ft | 569 kts | 99° |
| 2026-05-05 23:28 | 23.45036 | 47.65594 | 34804 ft | 564 kts | 99° |
| 2026-05-05 23:29 | 23.44196 | 47.74075 | 34808 ft | 564 kts | 99° |
| 2026-05-05 23:29 | 23.43353 | 47.82541 | 34808 ft | 565 kts | 99° |
| 2026-05-05 23:30 | 23.42515 | 47.91017 | 34788 ft | 562 kts | 98° |
| 2026-05-05 23:30 | 23.41692 | 47.99499 | 34796 ft | 564 kts | 99° |
| 2026-05-05 23:31 | 23.40865 | 48.07987 | 34783 ft | 563 kts | 99° |
| 2026-05-05 23:31 | 23.40006 | 48.16449 | 34779 ft | 561 kts | 99° |
| 2026-05-05 23:32 | 23.39142 | 48.24900 | 34788 ft | 563 kts | 99° |
| 2026-05-05 23:32 | 23.38801 | 48.33381 | 34778 ft | 562 kts | 83° |
| 2026-05-05 23:33 | 23.40663 | 48.41675 | 34768 ft | 566 kts | 73° |
| 2026-05-05 23:33 | 23.43363 | 48.49741 | 34769 ft | 568 kts | 69° |
| 2026-05-05 23:34 | 23.46173 | 48.57781 | 34760 ft | 565 kts | 70° |
| 2026-05-05 23:34 | 23.48803 | 48.65502 | 34760 ft | 564 kts | 70° |
| 2026-05-05 23:35 | 23.51547 | 48.73565 | 34761 ft | 565 kts | 70° |
| 2026-05-05 23:35 | 23.54277 | 48.81597 | 34758 ft | 564 kts | 70° |
| 2026-05-05 23:36 | 23.56985 | 48.89626 | 34765 ft | 566 kts | 70° |
| 2026-05-05 23:36 | 23.59705 | 48.97720 | 34767 ft | 568 kts | 70° |
| 2026-05-05 23:37 | 23.62403 | 49.05769 | 34762 ft | 566 kts | 70° |
| 2026-05-05 23:37 | 23.65102 | 49.13839 | 34765 ft | 566 kts | 70° |
| 2026-05-05 23:38 | 23.67803 | 49.21930 | 34765 ft | 567 kts | 70° |
| 2026-05-05 23:38 | 23.70494 | 49.30006 | 34762 ft | 566 kts | 71° |
| 2026-05-05 23:39 | 23.73182 | 49.38092 | 34763 ft | 567 kts | 71° |
| 2026-05-05 23:39 | 23.75854 | 49.46146 | 34766 ft | 568 kts | 71° |
| 2026-05-05 23:40 | 23.78532 | 49.54231 | 34761 ft | 559 kts | 71° |
| 2026-05-05 23:40 | 23.81154 | 49.62163 | 34761 ft | 551 kts | 71° |
| 2026-05-05 23:41 | 23.83760 | 49.70063 | 34761 ft | 557 kts | 71° |
| 2026-05-05 23:41 | 23.86406 | 49.78101 | 34760 ft | 566 kts | 71° |
| 2026-05-05 23:42 | 23.89082 | 49.86245 | 34761 ft | 573 kts | 71° |
| 2026-05-05 23:42 | 23.91752 | 49.94388 | 34757 ft | 559 kts | 71° |
| 2026-05-05 23:43 | 23.94345 | 50.02309 | 34759 ft | 550 kts | 71° |
| 2026-05-05 23:43 | 23.96911 | 50.10167 | 34760 ft | 547 kts | 71° |
| 2026-05-05 23:44 | 23.99469 | 50.18013 | 34760 ft | 548 kts | 71° |
| 2026-05-05 23:44 | 24.01673 | 50.24788 | 34756 ft | 547 kts | 71° |
| 2026-05-05 23:45 | 24.02964 | 50.28759 | 34457 ft | 544 kts | 70° |
| 2026-05-05 23:45 | 24.04213 | 50.32608 | 34002 ft | 539 kts | 70° |
| 2026-05-05 23:45 | 24.05467 | 50.36474 | 33496 ft | 535 kts | 71° |
| 2026-05-05 23:45 | 24.06700 | 50.40280 | 33040 ft | 529 kts | 70° |
| 2026-05-05 23:46 | 24.07913 | 50.44024 | 32631 ft | 523 kts | 70° |
| 2026-05-05 23:46 | 24.09131 | 50.47795 | 31974 ft | 522 kts | 70° |
| 2026-05-05 23:46 | 24.10333 | 50.51513 | 31620 ft | 515 kts | 70° |
| 2026-05-05 23:46 | 24.11521 | 50.55195 | 31126 ft | 511 kts | 70° |
| 2026-05-05 23:47 | 24.12693 | 50.58828 | 30628 ft | 507 kts | 70° |
| 2026-05-05 23:47 | 24.13863 | 50.62462 | 30215 ft | 501 kts | 70° |
| 2026-05-05 23:47 | 24.15016 | 50.66045 | 29839 ft | 494 kts | 70° |
| 2026-05-05 23:47 | 24.16154 | 50.69583 | 29367 ft | 490 kts | 70° |
| 2026-05-05 23:48 | 24.17267 | 50.73042 | 28911 ft | 486 kts | 70° |
| 2026-05-05 23:48 | 24.18375 | 50.76491 | 28493 ft | 479 kts | 70° |
| 2026-05-05 23:48 | 24.19478 | 50.79929 | 27786 ft | 474 kts | 70° |
| 2026-05-05 23:48 | 24.20566 | 50.83327 | 27100 ft | 469 kts | 70° |
| 2026-05-05 23:49 | 24.21635 | 50.86665 | 26539 ft | 462 kts | 70° |
| 2026-05-05 23:49 | 24.22682 | 50.89939 | 25998 ft | 454 kts | 71° |
| 2026-05-05 23:49 | 24.23721 | 50.93144 | 25345 ft | 449 kts | 71° |
| 2026-05-05 23:49 | 24.24770 | 50.96405 | 24716 ft | 443 kts | 71° |
| 2026-05-05 23:50 | 24.25784 | 50.99585 | 24090 ft | 438 kts | 71° |
| 2026-05-05 23:50 | 24.26782 | 51.02723 | 23498 ft | 433 kts | 71° |
| 2026-05-05 23:50 | 24.27769 | 51.05831 | 23040 ft | 432 kts | 71° |
| 2026-05-05 23:50 | 24.28749 | 51.08920 | 22592 ft | 430 kts | 71° |
| 2026-05-05 23:51 | 24.29730 | 51.12013 | 22150 ft | 425 kts | 71° |
| 2026-05-05 23:51 | 24.30696 | 51.15065 | 21717 ft | 423 kts | 70° |
| 2026-05-05 23:51 | 24.31659 | 51.18104 | 21282 ft | 422 kts | 70° |
| 2026-05-05 23:51 | 24.32663 | 51.21117 | 20830 ft | 418 kts | 65° |
| 2026-05-05 23:52 | 24.34195 | 51.23778 | 20501 ft | 409 kts | 51° |
| 2026-05-05 23:52 | 24.36017 | 51.26177 | 20027 ft | 407 kts | 47° |
| 2026-05-05 23:52 | 24.37962 | 51.28407 | 19597 ft | 403 kts | 43° |
| 2026-05-05 23:52 | 24.39983 | 51.30505 | 19173 ft | 399 kts | 41° |
| 2026-05-05 23:53 | 24.42010 | 51.32540 | 18754 ft | 395 kts | 41° |
| 2026-05-05 23:53 | 24.44000 | 51.34572 | 18341 ft | 392 kts | 41° |
| 2026-05-05 23:53 | 24.45974 | 51.36610 | 17957 ft | 387 kts | 41° |
| 2026-05-05 23:53 | 24.47926 | 51.38634 | 17836 ft | 378 kts | 41° |
| 2026-05-05 23:54 | 24.49867 | 51.40649 | 17372 ft | 388 kts | 41° |
| 2026-05-05 23:54 | 24.51816 | 51.42630 | 16925 ft | 385 kts | 38° |
| 2026-05-05 23:54 | 24.54017 | 51.44328 | 16504 ft | 379 kts | 30° |
| 2026-05-05 23:54 | 24.56314 | 51.45739 | 16076 ft | 375 kts | 26° |
| 2026-05-05 23:55 | 24.58644 | 51.46978 | 15654 ft | 372 kts | 23° |
| 2026-05-05 23:55 | 24.60947 | 51.48152 | 15238 ft | 369 kts | 24° |
| 2026-05-05 23:55 | 24.63290 | 51.49392 | 14807 ft | 366 kts | 25° |
| 2026-05-05 23:55 | 24.65584 | 51.50626 | 14384 ft | 364 kts | 25° |
| 2026-05-05 23:56 | 24.67833 | 51.51838 | 13999 ft | 360 kts | 25° |
| 2026-05-05 23:56 | 24.70066 | 51.53014 | 13572 ft | 351 kts | 23° |
| 2026-05-05 23:56 | 24.72263 | 51.54071 | 13149 ft | 344 kts | 22° |
| 2026-05-05 23:56 | 24.74440 | 51.55098 | 12722 ft | 336 kts | 22° |
| 2026-05-05 23:57 | 24.75884 | 51.55791 | 12433 ft | 332 kts | 22° |
| 2026-05-05 23:57 | 24.78522 | 51.57068 | 11834 ft | 326 kts | 22° |
| 2026-05-05 23:57 | 24.80617 | 51.58087 | 11200 ft | 326 kts | 22° |
| 2026-05-05 23:57 | 24.82702 | 51.59101 | 10573 ft | 327 kts | 22° |
| 2026-05-05 23:58 | 24.84720 | 51.60235 | 9910 ft | 331 kts | 32° |
| 2026-05-05 23:58 | 24.86317 | 51.62088 | 9276 ft | 335 kts | 54° |
| 2026-05-05 23:58 | 24.87259 | 51.64358 | 9249 ft | 316 kts | 67° |
| 2026-05-05 23:58 | 24.87918 | 51.66615 | 8922 ft | 306 kts | 71° |
| 2026-05-05 23:59 | 24.88185 | 51.68936 | 8241 ft | 307 kts | 90° |
| 2026-05-05 23:59 | 24.87577 | 51.71170 | 7692 ft | 302 kts | 116° |
| 2026-05-05 23:59 | 24.86237 | 51.72856 | 7388 ft | 283 kts | 138° |
| 2026-05-05 23:59 | 24.84821 | 51.74274 | 6838 ft | 269 kts | 129° |
| 2026-05-06 00:00 | 24.84063 | 51.76074 | 6190 ft | 253 kts | 102° |
| 2026-05-06 00:00 | 24.84037 | 51.77312 | 5786 ft | 243 kts | 82° |
| 2026-05-06 00:00 | 24.84661 | 51.78939 | 5145 ft | 231 kts | 52° |
| 2026-05-06 00:00 | 24.86284 | 51.79879 | 4356 ft | 218 kts | 10° |
| 2026-05-06 00:01 | 24.87277 | 51.79818 | 3969 ft | 213 kts | 352° |
| 2026-05-06 00:01 | 24.88634 | 51.79220 | 3419 ft | 208 kts | 336° |
| 2026-05-06 00:01 | 24.89894 | 51.78466 | 2879 ft | 202 kts | 335° |
| 2026-05-06 00:01 | 24.91092 | 51.77845 | 2630 ft | 183 kts | 338° |
| 2026-05-06 00:02 | 24.92271 | 51.77323 | 2515 ft | 184 kts | 341° |
| 2026-05-06 00:02 | 24.93483 | 51.76801 | 2486 ft | 187 kts | 341° |
| 2026-05-06 00:02 | 24.94673 | 51.76280 | 2535 ft | 179 kts | 341° |
| 2026-05-06 00:02 | 24.95779 | 51.75793 | 2533 ft | 172 kts | 341° |
| 2026-05-06 00:03 | 24.96885 | 51.75306 | 2499 ft | 169 kts | 341° |
| 2026-05-06 00:03 | 24.97969 | 51.74829 | 2480 ft | 168 kts | 341° |
| 2026-05-06 00:03 | 24.99068 | 51.74344 | 2482 ft | 169 kts | 341° |
| 2026-05-06 00:03 | 25.00163 | 51.73862 | 2481 ft | 169 kts | 341° |
| 2026-05-06 00:04 | 25.01233 | 51.73390 | 2455 ft | 163 kts | 341° |
| 2026-05-06 00:04 | 25.02278 | 51.72930 | 2473 ft | 160 kts | 341° |
| 2026-05-06 00:04 | 25.03309 | 51.72475 | 2464 ft | 160 kts | 341° |
| 2026-05-06 00:04 | 25.04340 | 51.72021 | 2486 ft | 160 kts | 341° |
| 2026-05-06 00:05 | 25.06417 | 51.71106 | 2475 ft | 160 kts | 341° |
| 2026-05-06 00:05 | 25.07459 | 51.70647 | 2477 ft | 160 kts | 341° |
| 2026-05-06 00:05 | 25.08477 | 51.70198 | 2480 ft | 160 kts | 341° |
| 2026-05-06 00:06 | 25.09510 | 51.69743 | 2478 ft | 160 kts | 341° |
| 2026-05-06 00:06 | 25.10547 | 51.69286 | 2478 ft | 160 kts | 341° |
| 2026-05-06 00:06 | 25.11576 | 51.68832 | 2478 ft | 160 kts | 341° |
| 2026-05-06 00:06 | 25.12612 | 51.68376 | 2478 ft | 160 kts | 341° |
| 2026-05-06 00:07 | 25.13619 | 51.67932 | 2446 ft | 160 kts | 341° |
| 2026-05-06 00:07 | 25.14682 | 51.67464 | 2241 ft | 160 kts | 341° |
| 2026-05-06 00:07 | 25.15719 | 51.67007 | 2028 ft | 158 kts | 341° |
| 2026-05-06 00:07 | 25.16736 | 51.66559 | 1816 ft | 159 kts | 341° |
| 2026-05-06 00:08 | 25.17761 | 51.66107 | 1614 ft | 161 kts | 341° |
| 2026-05-06 00:08 | 25.18815 | 51.65643 | 1402 ft | 162 kts | 341° |
| 2026-05-06 00:08 | 25.19868 | 51.65179 | 1178 ft | 159 kts | 340° |
| 2026-05-06 00:08 | 25.20888 | 51.64730 | 974 ft | 158 kts | 339° |
| 2026-05-06 00:09 | 25.21910 | 51.64279 | 781 ft | 158 kts | 339° |
| 2026-05-06 00:09 | 25.22935 | 51.63827 | 568 ft | 155 kts | 340° |
| 2026-05-06 00:09 | 25.23929 | 51.63389 | 337 ft | 153 kts | 340° |
| 2026-05-06 00:09 | 25.24912 | 51.62955 | 140 ft | 154 kts | 340° |
| 2026-05-06 00:10 | 25.25892 | 51.62524 | 33 ft | 145 kts | 340° |
| 2026-05-06 00:10 | 25.26852 | 51.62104 | 31 ft | 156 kts | 339° |
| 2026-05-06 00:10 | 25.27719 | 51.61726 | 27 ft | 105 kts | 338° |
| 2026-05-06 00:10 | 25.28213 | 51.61511 | 27 ft | 52 kts | 338° |
| 2026-05-06 00:11 | 25.28455 | 51.61405 | 26 ft | 30 kts | 339° |
| 2026-05-06 00:11 | 25.28646 | 51.61318 | 26 ft | 28 kts | 338° |
| 2026-05-06 00:11 | 25.28822 | 51.61240 | 26 ft | 26 kts | 338° |
| 2026-05-06 00:11 | 25.29006 | 51.61158 | 26 ft | 33 kts | 338° |
| 2026-05-06 00:12 | 25.29251 | 51.61054 | 27 ft | 42 kts | 340° |
| 2026-05-06 00:12 | 25.29437 | 51.60942 | 26 ft | 18 kts | 292° |
| 2026-05-06 00:12 | 25.29420 | 51.60786 | 26 ft | 19 kts | 214° |
| 2026-05-06 00:12 | 25.29327 | 51.60813 | 26 ft | 16 kts | 154° |
| 2026-05-06 00:13 | 25.29191 | 51.60874 | 26 ft | 26 kts | 159° |
| 2026-05-06 00:13 | 25.28993 | 51.60958 | 27 ft | 34 kts | 158° |
| 2026-05-06 00:13 | 25.28866 | 51.60960 | 26 ft | 18 kts | 246° |
| 2026-05-06 00:13 | 25.28846 | 51.60851 | 26 ft | 16 kts | 244° |
| 2026-05-06 00:14 | 25.28799 | 51.60739 | 26 ft | 11 kts | 248° |
| 2026-05-06 00:14 | 25.28808 | 51.60705 | 26 ft | 3 kts | 329° |
| 2026-05-06 00:14 | 25.28852 | 51.60693 | 26 ft | 5 kts | 336° |
| 2026-05-06 00:14 | 25.28871 | 51.60688 | 26 ft | 2 kts | 348° |
| 2026-05-06 00:15 | 25.28881 | 51.60683 | 26 ft | 0 kts | 336° |